createdAt,value
2022-11-17T00:02:21.304Z,65.15
2022-11-17T00:04:50.536Z,64.65
2022-11-17T00:07:20.142Z,64.60
2022-11-17T00:09:49.390Z,64.43
2022-11-17T00:12:36.200Z,65.46
2022-11-17T00:15:07.346Z,65.04
2022-11-17T00:17:36.783Z,64.61
2022-11-17T00:20:24.983Z,65.47
2022-11-17T00:22:54.390Z,65.17
2022-11-17T00:25:23.627Z,64.96
2022-11-17T00:27:53.207Z,64.28
2022-11-17T00:30:43.735Z,64.57
2022-11-17T00:33:30.889Z,65.15
2022-11-17T00:36:01.129Z,65.26
2022-11-17T00:38:30.684Z,64.04
2022-11-17T00:40:59.813Z,64.64
2022-11-17T00:43:29.636Z,64.06
2022-11-17T00:46:00.362Z,63.72
2022-11-17T00:48:29.806Z,64.26
2022-11-17T00:50:58.889Z,64.46
2022-11-17T00:53:28.370Z,64.09
2022-11-17T00:55:57.478Z,63.38
2022-11-17T00:58:26.801Z,63.73
2022-11-17T01:00:55.835Z,63.90
2022-11-17T01:03:26.597Z,64.34
2022-11-17T01:05:55.806Z,64.42
2022-11-17T01:08:25.191Z,64.51
2022-11-17T01:10:54.228Z,64.31
2022-11-17T01:13:23.753Z,63.34
2022-11-17T01:15:52.792Z,62.42
2022-11-17T01:18:22.398Z,63.09
2022-11-17T01:20:52.844Z,63.63
2022-11-17T01:23:22.246Z,64.00
2022-11-17T01:25:51.317Z,62.95
2022-11-17T01:28:20.652Z,63.39
2022-11-17T01:30:49.821Z,63.88
2022-11-17T01:33:19.265Z,63.22
2022-11-17T01:35:48.296Z,62.55
2022-11-17T01:38:19.056Z,62.79
2022-11-17T01:40:48.253Z,63.88
2022-11-17T01:43:17.781Z,64.06
2022-11-17T01:45:47.047Z,63.03
2022-11-17T01:48:17.076Z,63.42
2022-11-17T01:50:49.660Z,63.35
2022-11-17T01:56:12.470Z,63.39
2022-11-17T01:58:46.431Z,63.20
2022-11-17T02:01:15.951Z,63.27
2022-11-17T02:03:49.327Z,62.73
2022-11-17T02:06:24.961Z,63.43
2022-11-17T02:08:56.250Z,62.96
2022-11-17T02:11:26.867Z,63.40
2022-11-17T02:13:58.002Z,63.23
2022-11-17T02:16:27.069Z,64.12
2022-11-17T02:18:56.579Z,63.60
2022-11-17T02:22:03.556Z,64.25
2022-11-17T02:24:42.630Z,64.08
2022-11-17T02:27:41.893Z,63.36
2022-11-17T02:30:15.125Z,64.70
2022-11-17T02:32:58.280Z,63.98
2022-11-17T02:35:35.125Z,64.08
2022-11-17T02:38:16.538Z,62.99
2022-11-17T02:40:49.563Z,63.17
2022-11-17T02:43:40.088Z,63.94
2022-11-17T02:46:12.244Z,62.62
2022-11-17T02:48:46.236Z,62.89
2022-11-17T02:51:21.057Z,64.00
2022-11-17T02:53:51.523Z,63.54
2022-11-17T02:56:20.977Z,63.49
2022-11-17T02:58:55.318Z,62.53
2022-11-17T03:01:50.081Z,62.00
2022-11-17T03:04:32.010Z,62.88
2022-11-17T03:07:12.241Z,62.50
2022-11-17T03:09:50.480Z,63.15
2022-11-17T03:12:26.013Z,62.69
2022-11-17T03:15:05.601Z,62.63
2022-11-17T03:17:41.415Z,61.69
2022-11-17T03:20:15.517Z,61.54
2022-11-17T03:22:51.831Z,62.39
2022-11-17T03:25:24.719Z,62.69
2022-11-17T03:27:57.580Z,61.24
2022-11-17T03:35:34.869Z,61.65
2022-11-17T03:38:11.581Z,61.99
2022-11-17T03:40:45.132Z,62.27
2022-11-17T03:43:17.861Z,61.36
2022-11-17T03:45:50.539Z,60.97
2022-11-17T03:48:26.122Z,62.52
2022-11-17T03:51:06.522Z,63.12
2022-11-17T03:53:37.301Z,61.96
2022-11-17T03:56:12.230Z,61.73
2022-11-17T03:58:52.665Z,61.51
2022-11-17T04:01:23.850Z,62.42
2022-11-17T04:03:54.397Z,61.20
2022-11-17T04:06:25.066Z,61.13
2022-11-17T04:08:54.481Z,62.92
2022-11-17T04:11:41.080Z,62.72
2022-11-17T04:14:28.440Z,62.37
2022-11-17T04:16:57.537Z,62.02
2022-11-17T04:19:27.005Z,60.79
2022-11-17T04:21:57.641Z,61.39
2022-11-17T04:24:27.163Z,60.90
2022-11-17T04:27:13.434Z,61.66
2022-11-17T04:29:42.837Z,61.49
2022-11-17T04:32:11.856Z,62.86
2022-11-17T04:34:43.475Z,61.60
2022-11-17T04:37:17.619Z,62.00
2022-11-17T04:39:47.275Z,61.60
2022-11-17T04:42:15.278Z,62.74
2022-11-17T04:44:44.682Z,61.94
2022-11-17T04:47:13.790Z,62.64
2022-11-17T04:49:43.188Z,61.59
2022-11-17T04:52:13.615Z,62.67
2022-11-17T04:54:42.972Z,62.55
2022-11-17T04:57:12.184Z,62.80
2022-11-17T04:59:41.573Z,63.13
2022-11-17T05:02:10.656Z,63.26
2022-11-17T05:04:58.603Z,62.71
2022-11-17T05:07:29.179Z,61.92
2022-11-17T05:09:58.607Z,62.09
2022-11-17T05:12:45.443Z,62.32
2022-11-17T05:15:35.119Z,63.29
2022-11-17T05:18:03.141Z,61.95
2022-11-17T05:20:34.562Z,61.81
2022-11-17T05:23:22.243Z,62.53
2022-11-17T05:25:55.274Z,62.16
2022-11-17T05:28:24.323Z,62.47
2022-11-17T05:30:53.691Z,62.58
2022-11-17T05:33:22.791Z,63.37
2022-11-17T05:35:52.190Z,62.34
2022-11-17T05:38:22.682Z,62.63
2022-11-17T05:40:52.019Z,64.07
2022-11-17T05:43:21.113Z,63.42
2022-11-17T05:45:50.723Z,63.38
2022-11-17T05:48:19.976Z,62.95
2022-11-17T05:50:49.403Z,62.69
2022-11-17T05:53:18.583Z,62.59
2022-11-17T05:55:49.383Z,62.83
2022-11-17T05:58:23.803Z,62.95
2022-11-17T06:00:55.553Z,62.64
2022-11-17T06:03:30.407Z,62.42
2022-11-17T06:05:59.866Z,61.94
2022-11-17T06:08:30.309Z,61.23
2022-11-17T06:11:01.115Z,62.41
2022-11-17T06:13:30.262Z,62.60
2022-11-17T06:16:01.785Z,62.59
2022-11-17T06:18:35.456Z,63.09
2022-11-17T06:21:05.246Z,62.57
2022-11-17T06:23:36.453Z,62.79
2022-11-17T06:26:10.669Z,63.11
2022-11-17T06:28:43.308Z,63.52
2022-11-17T06:31:13.610Z,62.82
2022-11-17T06:33:42.965Z,62.37
2022-11-17T06:36:12.567Z,62.48
2022-11-17T06:38:41.618Z,62.42
2022-11-17T06:41:12.436Z,63.23
2022-11-17T06:43:41.507Z,62.92
2022-11-17T06:46:10.972Z,62.32
2022-11-17T06:48:40.071Z,63.33
2022-11-17T06:51:09.430Z,62.24
2022-11-17T06:53:38.528Z,62.24
2022-11-17T06:56:09.209Z,61.48
2022-11-17T06:58:41.421Z,61.20
2022-11-17T07:01:13.537Z,61.91
2022-11-17T07:03:43.688Z,62.05
2022-11-17T07:06:13.955Z,61.35
2022-11-17T07:08:43.116Z,62.17
2022-11-17T07:11:14.118Z,61.83
2022-11-17T07:13:44.831Z,61.72
2022-11-17T07:16:21.731Z,61.78
2022-11-17T07:18:53.562Z,62.92
2022-11-17T07:21:22.983Z,62.38
2022-11-17T07:23:52.080Z,62.68
2022-11-17T07:26:21.553Z,62.83
2022-11-17T07:28:51.999Z,62.12
2022-11-17T07:31:21.988Z,62.43
2022-11-17T07:33:51.115Z,61.27
2022-11-17T07:36:20.607Z,61.69
2022-11-17T07:38:49.746Z,61.82
2022-11-17T07:41:19.032Z,62.05
2022-11-17T07:43:48.020Z,62.18
2022-11-17T07:46:18.977Z,62.92
2022-11-17T07:48:48.094Z,62.16
2022-11-17T07:51:17.532Z,61.88
2022-11-17T07:53:46.646Z,61.46
2022-11-17T07:56:16.412Z,61.93
2022-11-17T07:58:45.470Z,62.46
2022-11-17T08:01:16.353Z,62.80
2022-11-17T08:03:46.849Z,63.04
2022-11-17T08:06:16.973Z,62.07
2022-11-17T08:08:48.486Z,61.96
2022-11-17T08:11:18.067Z,61.36
2022-11-17T08:13:47.234Z,60.78
2022-11-17T08:16:16.820Z,61.17
2022-11-17T08:18:52.123Z,60.77
2022-11-17T08:21:22.024Z,61.02
2022-11-17T08:23:52.931Z,60.88
2022-11-17T08:26:25.154Z,60.21
2022-11-17T08:28:58.345Z,59.87
2022-11-17T08:31:28.202Z,60.28
2022-11-17T08:33:58.695Z,60.14
2022-11-17T08:36:27.952Z,59.81
2022-11-17T08:38:57.094Z,59.54
2022-11-17T08:41:26.708Z,59.50
2022-11-17T08:43:55.855Z,59.61
2022-11-17T08:46:26.544Z,59.55
2022-11-17T08:48:57.394Z,58.56
2022-11-17T08:51:28.911Z,59.26
2022-11-17T08:54:00.075Z,58.75
2022-11-17T08:56:29.976Z,59.97
2022-11-17T08:58:59.045Z,59.78
2022-11-17T09:01:28.500Z,58.70
2022-11-17T09:03:58.967Z,58.51
2022-11-17T09:06:28.261Z,58.82
2022-11-17T09:08:57.655Z,58.35
2022-11-17T09:11:27.377Z,58.06
2022-11-17T09:13:56.432Z,59.40
2022-11-17T09:16:25.927Z,57.96
2022-11-17T09:18:59.539Z,56.94
2022-11-17T09:21:29.101Z,57.58
2022-11-17T09:23:58.231Z,57.68
2022-11-17T09:26:27.914Z,57.14
2022-11-17T09:28:56.923Z,56.95
2022-11-17T09:31:26.332Z,57.85
2022-11-17T09:33:58.274Z,57.26
2022-11-17T09:36:30.245Z,57.11
2022-11-17T09:38:59.540Z,57.28
2022-11-17T09:41:34.651Z,57.09
2022-11-17T09:44:13.294Z,57.25
2022-11-17T09:46:55.860Z,57.46
2022-11-17T09:49:41.688Z,56.34
2022-11-17T09:52:16.121Z,56.04
2022-11-17T09:54:51.087Z,56.30
2022-11-17T09:57:35.170Z,55.27
2022-11-17T10:00:13.362Z,55.82
2022-11-17T10:02:43.647Z,53.37
2022-11-17T10:05:20.715Z,53.01
2022-11-17T10:07:54.799Z,51.67
2022-11-17T10:10:33.402Z,51.59
2022-11-17T10:13:06.048Z,51.42
2022-11-17T10:15:43.713Z,50.42
2022-11-17T10:18:15.419Z,48.13
2022-11-17T10:20:45.550Z,46.37
2022-11-17T10:23:19.769Z,44.10
2022-11-17T10:25:50.158Z,43.13
2022-11-17T10:28:27.992Z,38.75
2022-11-17T10:31:00.274Z,33.70
2022-11-17T10:33:39.317Z,34.24
2022-11-17T10:36:16.180Z,30.69
2022-11-17T10:38:48.746Z,31.75
2022-11-17T10:41:19.985Z,31.58
2022-11-17T10:43:59.195Z,29.83
2022-11-17T10:46:34.269Z,31.96
2022-11-17T10:49:25.908Z,26.60
2022-11-17T10:52:07.897Z,29.50
2022-11-17T10:54:39.240Z,27.14
2022-11-17T10:57:13.397Z,26.96
2022-11-17T10:59:47.861Z,30.53
2022-11-17T11:02:31.368Z,27.97
2022-11-17T11:05:10.406Z,26.31
2022-11-17T11:07:40.199Z,25.95
2022-11-17T11:10:17.742Z,25.29
2022-11-17T11:13:16.317Z,25.11
2022-11-17T11:16:06.059Z,26.88
2022-11-17T11:18:35.561Z,29.61
2022-11-17T11:21:14.976Z,27.47
2022-11-17T11:23:52.330Z,26.54
2022-11-17T11:26:43.459Z,26.69
2022-11-17T11:29:24.109Z,30.19
2022-11-17T11:32:10.797Z,29.66
2022-11-17T11:34:53.838Z,29.91
2022-11-17T11:37:29.104Z,36.12
2022-11-17T11:40:08.605Z,37.30
2022-11-17T11:42:52.105Z,41.27
2022-11-17T11:45:30.574Z,39.12
2022-11-17T11:48:15.349Z,34.50
2022-11-17T11:50:57.851Z,30.46
2022-11-17T11:53:32.590Z,27.18
2022-11-17T11:56:20.207Z,25.34
2022-11-17T11:58:59.852Z,28.97
2022-11-17T12:01:35.416Z,26.98
2022-11-17T12:04:20.133Z,29.40
2022-11-17T12:06:58.746Z,26.16
2022-11-17T12:09:49.283Z,27.24
2022-11-17T12:12:23.777Z,24.65
2022-11-17T12:15:13.677Z,26.71
2022-11-17T12:18:00.169Z,25.91
2022-11-17T12:20:58.245Z,27.44
2022-11-17T12:23:58.461Z,25.96
2022-11-17T12:26:29.684Z,28.94
2022-11-17T12:29:35.090Z,25.68
2022-11-17T12:32:06.028Z,25.99
2022-11-17T12:34:37.308Z,26.43
2022-11-17T12:37:30.105Z,26.56
2022-11-17T12:40:04.952Z,27.95
2022-11-17T12:42:36.013Z,26.12
2022-11-17T12:45:10.264Z,27.08
2022-11-17T12:47:44.306Z,26.16
2022-11-17T12:50:35.891Z,28.26
2022-11-17T12:53:27.729Z,31.69
2022-11-17T12:56:30.114Z,28.38
2022-11-17T12:59:11.386Z,28.42
2022-11-17T13:01:52.468Z,30.05
2022-11-17T13:04:31.599Z,30.08
2022-11-17T13:07:02.753Z,32.33
2022-11-17T13:09:33.412Z,32.74
2022-11-17T13:12:05.677Z,30.63
2022-11-17T13:14:35.847Z,31.81
2022-11-17T13:17:12.414Z,31.81
2022-11-17T13:19:43.932Z,29.74
2022-11-17T13:22:18.647Z,31.25
2022-11-17T13:24:50.071Z,35.35
2022-11-17T13:27:24.487Z,36.75
2022-11-17T13:29:53.665Z,37.75
2022-11-17T13:32:28.515Z,42.52
2022-11-17T13:35:00.931Z,44.82
2022-11-17T13:37:31.318Z,44.24
2022-11-17T13:40:02.996Z,44.02
2022-11-17T13:42:34.434Z,48.84
2022-11-17T13:45:06.106Z,51.29
2022-11-17T13:47:46.757Z,51.95
2022-11-17T13:50:37.444Z,54.91
2022-11-17T13:53:23.966Z,55.43
2022-11-17T13:55:53.681Z,53.99
2022-11-17T13:58:32.987Z,55.34
2022-11-17T14:01:02.166Z,55.94
2022-11-17T14:03:37.537Z,55.63
2022-11-17T14:06:10.399Z,56.96
2022-11-17T14:08:41.381Z,55.66
2022-11-17T14:11:21.504Z,57.25
2022-11-17T14:13:55.736Z,56.77
2022-11-17T14:16:28.243Z,57.40
2022-11-17T14:19:06.232Z,57.27
2022-11-17T14:21:36.837Z,58.16
2022-11-17T14:24:12.173Z,57.84
2022-11-17T14:26:45.450Z,57.89
2022-11-17T14:29:15.174Z,58.64
2022-11-17T14:31:44.368Z,58.35
2022-11-17T14:34:14.129Z,58.59
2022-11-17T14:36:45.264Z,58.19
2022-11-17T14:39:19.038Z,59.16
2022-11-17T14:41:49.472Z,58.78
2022-11-17T14:44:19.253Z,59.87
2022-11-17T14:46:48.313Z,60.22
2022-11-17T14:49:17.799Z,60.28
2022-11-17T14:51:51.711Z,61.29
2022-11-17T14:54:21.026Z,60.49
2022-11-17T14:56:50.224Z,61.89
2022-11-17T14:59:19.733Z,61.43
2022-11-17T15:01:48.785Z,62.15
2022-11-17T15:04:48.789Z,62.69
2022-11-17T15:07:08.674Z,62.62
2022-11-17T15:09:38.092Z,62.67
2022-11-17T15:12:07.878Z,62.92
2022-11-17T15:14:41.055Z,62.87
2022-11-17T15:17:14.323Z,63.54
2022-11-17T15:19:44.688Z,64.07
2022-11-17T15:22:15.161Z,63.36
2022-11-17T15:24:44.518Z,63.71
2022-11-17T15:27:13.702Z,63.66
2022-11-17T15:29:43.085Z,63.77
2022-11-17T15:32:12.261Z,64.45
2022-11-17T15:34:41.640Z,63.64
2022-11-17T15:37:10.674Z,65.53
2022-11-17T15:39:41.432Z,64.20
2022-11-17T15:42:10.645Z,64.43
2022-11-17T15:44:40.054Z,64.78
2022-11-17T15:47:09.389Z,64.50
2022-11-17T15:49:38.758Z,64.51
2022-11-17T15:52:07.785Z,64.54
2022-11-17T15:54:37.272Z,65.19
2022-11-17T15:57:08.277Z,65.02
2022-11-17T15:59:37.785Z,66.28
2022-11-17T16:02:10.806Z,66.26
2022-11-17T16:04:40.290Z,65.58
2022-11-17T16:07:09.441Z,65.93
2022-11-17T16:09:38.797Z,65.60
2022-11-17T16:12:09.487Z,65.93
2022-11-17T16:14:39.142Z,66.12
2022-11-17T16:17:08.216Z,66.71
2022-11-17T16:19:37.722Z,67.45
2022-11-17T16:22:06.821Z,67.94
2022-11-17T16:24:36.160Z,67.62
2022-11-17T16:27:10.548Z,67.09
2022-11-17T16:29:42.597Z,67.79
2022-11-17T16:32:11.642Z,67.67
2022-11-17T16:34:41.522Z,67.13
2022-11-17T16:37:10.630Z,66.75
2022-11-17T16:39:39.966Z,67.60
2022-11-17T16:42:10.525Z,67.71
2022-11-17T16:44:39.945Z,67.55
2022-11-17T16:47:09.110Z,67.74
2022-11-17T16:49:38.957Z,67.67
2022-11-17T16:52:08.059Z,67.76
2022-11-17T16:54:37.539Z,67.31
2022-11-17T16:57:06.748Z,68.08
2022-11-17T16:59:37.701Z,68.58
2022-11-17T17:02:06.758Z,69.16
2022-11-17T17:04:36.327Z,69.00
2022-11-17T17:07:06.059Z,68.38
2022-11-17T17:09:37.332Z,69.50
2022-11-17T17:12:07.322Z,69.41
2022-11-17T17:14:38.155Z,69.22
2022-11-17T17:17:07.281Z,69.91
2022-11-17T17:19:36.882Z,69.60
2022-11-17T17:22:05.956Z,68.99
2022-11-17T17:24:35.307Z,70.21
2022-11-17T17:27:05.109Z,69.16
2022-11-17T17:29:34.677Z,69.69
2022-11-17T17:32:05.288Z,70.19
2022-11-17T17:34:34.626Z,69.92
2022-11-17T17:37:03.695Z,69.49
2022-11-17T17:39:33.666Z,69.06
2022-11-17T17:42:02.863Z,69.52
2022-11-17T17:44:32.179Z,68.39
2022-11-17T17:47:01.336Z,68.71
2022-11-17T17:49:33.263Z,69.26
2022-11-17T17:52:02.382Z,68.21
2022-11-17T17:54:31.757Z,69.31
2022-11-17T17:57:00.867Z,68.66
2022-11-17T17:59:30.148Z,69.13
2022-11-17T18:01:59.230Z,69.01
2022-11-17T18:04:29.575Z,68.89
2022-11-17T18:07:01.525Z,69.78
2022-11-17T18:09:31.042Z,69.25
2022-11-17T18:12:00.079Z,69.72
2022-11-17T18:14:30.780Z,69.76
2022-11-17T18:16:59.908Z,69.89
2022-11-17T18:19:32.939Z,69.34
2022-11-17T18:22:03.993Z,69.64
2022-11-17T18:24:33.371Z,69.08
2022-11-17T18:27:02.463Z,69.76
2022-11-17T18:29:35.029Z,68.95
2022-11-17T18:32:04.308Z,68.61
2022-11-17T18:34:34.540Z,68.36
2022-11-17T18:37:05.251Z,67.88
2022-11-17T18:39:34.753Z,68.19
2022-11-17T18:42:03.782Z,68.49
2022-11-17T18:44:33.184Z,68.94
2022-11-17T18:47:03.164Z,68.29
2022-11-17T18:49:34.522Z,68.70
2022-11-17T18:52:05.390Z,69.57
2022-11-17T18:54:34.770Z,69.70
2022-11-17T18:57:04.077Z,68.94
2022-11-17T18:59:33.505Z,69.08
2022-11-17T19:02:02.891Z,67.89
2022-11-17T19:04:32.390Z,68.49
2022-11-17T19:07:01.527Z,67.50
2022-11-17T19:09:33.592Z,67.39
2022-11-17T19:12:02.729Z,67.16
2022-11-17T19:14:32.974Z,66.51
2022-11-17T19:17:02.344Z,66.76
2022-11-17T19:19:31.805Z,66.02
2022-11-17T19:22:00.936Z,66.31
2022-11-17T19:24:32.672Z,66.61
2022-11-17T19:27:02.522Z,66.81
2022-11-17T19:29:32.536Z,66.54
2022-11-17T19:32:01.707Z,67.75
2022-11-17T19:34:31.329Z,67.50
2022-11-17T19:37:00.341Z,66.98
2022-11-17T19:39:32.519Z,67.59
2022-11-17T19:42:01.571Z,67.39
2022-11-17T19:44:30.895Z,67.55
2022-11-17T19:47:00.035Z,67.84
2022-11-17T19:49:29.388Z,67.71
2022-11-17T19:51:58.402Z,67.74
2022-11-17T19:54:28.624Z,67.52
2022-11-17T19:56:59.711Z,66.99
2022-11-17T19:59:29.550Z,67.12
2022-11-17T20:01:58.726Z,66.84
2022-11-17T20:04:35.785Z,66.95
2022-11-17T20:07:05.159Z,68.49
2022-11-17T20:09:34.737Z,68.45
2022-11-17T20:12:05.353Z,68.43
2022-11-17T20:14:35.244Z,69.96
2022-11-17T20:17:04.302Z,68.93
2022-11-17T20:19:33.989Z,70.29
2022-11-17T20:22:03.289Z,70.16
2022-11-17T20:24:35.056Z,69.48
2022-11-17T20:27:05.633Z,70.42
2022-11-17T20:29:35.307Z,70.19
2022-11-17T20:32:04.424Z,70.32
2022-11-17T20:34:34.045Z,71.08
2022-11-17T20:37:03.184Z,70.70
2022-11-17T20:39:32.522Z,70.21
2022-11-17T20:42:01.703Z,69.96
2022-11-17T20:44:32.680Z,70.92
2022-11-17T20:47:01.741Z,71.32
2022-11-17T20:49:31.413Z,71.64
2022-11-17T20:52:00.520Z,71.78
2022-11-17T20:54:29.949Z,70.60
2022-11-17T20:56:59.116Z,70.92
2022-11-17T20:59:28.612Z,70.28
2022-11-17T21:01:59.077Z,69.71
2022-11-17T21:04:28.468Z,70.47
2022-11-17T21:06:57.628Z,70.18
2022-11-17T21:09:28.354Z,69.54
2022-11-17T21:11:57.538Z,70.94
2022-11-17T21:14:27.752Z,71.36
2022-11-17T21:17:00.509Z,71.42
2022-11-17T21:19:31.126Z,71.28
2022-11-17T21:22:02.471Z,70.84
2022-11-17T21:24:31.828Z,70.26
2022-11-17T21:27:00.915Z,71.29
2022-11-17T21:29:30.293Z,72.57
2022-11-17T21:32:00.743Z,71.91
2022-11-17T21:34:30.216Z,72.54
2022-11-17T21:36:59.236Z,72.09
2022-11-17T21:39:28.634Z,71.28
2022-11-17T21:41:57.793Z,72.11
2022-11-17T21:44:27.854Z,73.47
2022-11-17T21:46:56.908Z,72.34
2022-11-17T21:49:27.675Z,72.97
2022-11-17T21:51:56.871Z,72.53
2022-11-17T21:54:26.500Z,73.14
2022-11-17T21:56:55.644Z,74.79
2022-11-17T21:59:25.058Z,72.95
2022-11-17T22:01:54.364Z,72.55
2022-11-17T22:04:23.885Z,71.92
2022-11-17T22:06:54.412Z,72.65
2022-11-17T22:09:23.744Z,73.84
2022-11-17T22:11:53.201Z,72.74
2022-11-17T22:14:22.871Z,71.78
2022-11-17T22:16:55.058Z,73.92
2022-11-17T22:19:27.791Z,72.64
2022-11-17T22:21:58.403Z,74.41
2022-11-17T22:24:27.959Z,73.84
2022-11-17T22:26:57.062Z,74.96
2022-11-17T22:29:26.644Z,75.82
2022-11-17T22:31:56.285Z,76.91
2022-11-17T22:34:25.655Z,77.95
2022-11-17T22:36:54.810Z,77.10
2022-11-17T22:39:25.650Z,77.82
2022-11-17T22:41:54.723Z,77.25
2022-11-17T22:44:25.055Z,77.22
2022-11-17T22:46:54.239Z,77.66
2022-11-17T22:49:23.720Z,77.09
2022-11-17T22:52:04.633Z,77.36
2022-11-17T22:54:35.862Z,79.34
2022-11-17T22:57:05.173Z,78.65
2022-11-17T22:59:34.609Z,79.27
2022-11-17T23:02:03.776Z,77.16
2022-11-17T23:04:33.393Z,76.83
2022-11-17T23:07:02.700Z,76.57
2022-11-17T23:09:33.955Z,77.41
2022-11-17T23:12:03.201Z,78.39
2022-11-17T23:14:32.655Z,76.79
2022-11-17T23:17:01.847Z,75.60
2022-11-17T23:19:31.355Z,75.05
2022-11-17T23:22:00.718Z,74.54
2022-11-17T23:24:30.164Z,75.16
2022-11-17T23:27:00.643Z,74.76
2022-11-17T23:29:30.318Z,74.96
2022-11-17T23:31:59.371Z,76.59
2022-11-17T23:34:28.960Z,76.33
2022-11-17T23:37:03.357Z,75.45
2022-11-17T23:39:33.477Z,75.37
2022-11-17T23:42:04.419Z,74.89
2022-11-17T23:44:33.888Z,75.17
2022-11-17T23:47:02.891Z,76.59
2022-11-17T23:49:32.334Z,75.54
2022-11-17T23:52:01.463Z,75.22
2022-11-17T23:54:30.940Z,75.30
2022-11-17T23:57:00.014Z,76.05
2022-11-17T23:59:30.881Z,74.28
